Time;durP1;ratioP1;P1;durP2;ratioP2;P2;SDS_P1;SDS_P2;PMS_P1;PMS_P2;Temp;Humidity;BMP_temperature;BMP_pressure;BME280_temperature;BME280_humidity;BME280_pressure;Samples;Min_cycle;Max_cycle;Signal;HPM_P1;HPM_P2
2021/07/12 00:00:54;;;;;;;1.00;0.40;;;;;;;;;;4975575;28;20089;-72
2021/07/12 00:03:19;;;;;;;0.40;0.40;;;;;;;;;;4980054;28;20094;-72
2021/07/12 00:05:45;;;;;;;0.45;0.45;;;;;;;;;;4979520;28;20107;-72
2021/07/12 00:08:11;;;;;;;0.40;0.40;;;;;;;;;;4988588;28;20486;-72
2021/07/12 00:10:36;;;;;;;0.35;0.35;;;;;;;;;;4987210;28;20103;-72
2021/07/12 00:13:02;;;;;;;0.50;0.50;;;;;;;;;;4986102;28;20074;-71
2021/07/12 00:15:28;;;;;;;0.30;0.30;;;;;;;;;;4994719;28;20046;-72
2021/07/12 00:17:54;;;;;;;0.40;0.40;;;;;;;;;;4996679;28;20035;-72
2021/07/12 00:20:21;;;;;;;0.40;0.40;;;;;;;;;;4992685;28;20031;-71
2021/07/12 00:22:47;;;;;;;0.40;0.40;;;;;;;;;;4981233;28;20098;-72
2021/07/12 00:25:13;;;;;;;0.40;0.40;;;;;;;;;;4982700;28;20050;-72
2021/07/12 00:27:39;;;;;;;0.47;0.47;;;;;;;;;;4988774;28;20096;-72
2021/07/12 00:30:06;;;;;;;0.45;0.45;;;;;;;;;;4983602;28;20451;-72
2021/07/12 00:32:31;;;;;;;0.40;0.40;;;;;;;;;;4986392;28;20299;-72
2021/07/12 00:34:56;;;;;;;0.40;0.40;;;;;;;;;;4994526;28;20033;-72
2021/07/12 00:37:22;;;;;;;0.45;0.45;;;;;;;;;;4987421;28;20034;-72
2021/07/12 00:39:47;;;;;;;0.40;0.40;;;;;;;;;;4984509;28;20030;-72
2021/07/12 00:42:13;;;;;;;0.50;0.50;;;;;;;;;;4997222;28;20062;-71
2021/07/12 00:44:38;;;;;;;0.50;0.50;;;;;;;;;;4995192;28;20505;-72
2021/07/12 00:47:06;;;;;;;0.40;0.40;;;;;;;;;;4997789;28;20539;-72
2021/07/12 00:49:32;;;;;;;0.50;0.50;;;;;;;;;;4969023;28;20045;-72
2021/07/12 00:52:00;;;;;;;0.40;0.40;;;;;;;;;;4985752;28;20035;-72
2021/07/12 00:54:29;;;;;;;0.50;0.50;;;;;;;;;;4984686;28;20564;-72
2021/07/12 00:56:57;;;;;;;0.40;0.40;;;;;;;;;;4996070;28;20512;-71
2021/07/12 00:59:23;;;;;;;0.50;0.50;;;;;;;;;;4991341;28;20030;-73
2021/07/12 01:01:49;;;;;;;0.50;0.50;;;;;;;;;;4990438;28;20099;-72
2021/07/12 01:04:14;;;;;;;0.32;0.32;;;;;;;;;;4987733;28;20127;-73
2021/07/12 01:06:40;;;;;;;0.50;0.50;;;;;;;;;;4979091;28;20023;-72
2021/07/12 01:09:06;;;;;;;0.40;0.40;;;;;;;;;;4965790;28;20033;-72
2021/07/12 01:11:41;;;;;;;0.45;0.45;;;;;;;;;;4981114;28;20067;-72
2021/07/12 01:14:07;;;;;;;0.43;0.43;;;;;;;;;;4963649;28;20027;-72
2021/07/12 01:16:52;;;;;;;0.50;0.50;;;;;;;;;;4971545;28;20062;-72
2021/07/12 01:19:36;;;;;;;0.40;0.40;;;;;;;;;;4982868;28;20031;-72
2021/07/12 01:22:11;;;;;;;0.50;0.50;;;;;;;;;;4995247;28;20037;-72
2021/07/12 01:24:36;;;;;;;0.40;0.40;;;;;;;;;;4989428;28;20034;-72
2021/07/12 01:27:01;;;;;;;0.40;0.40;;;;;;;;;;4981856;28;20031;-72
2021/07/12 01:29:27;;;;;;;0.40;0.40;;;;;;;;;;4973473;28;20030;-72
2021/07/12 01:32:05;;;;;;;0.50;0.50;;;;;;;;;;4976949;28;20030;-72
2021/07/12 01:34:35;;;;;;;0.40;0.40;;;;;;;;;;4978431;28;20082;-72
2021/07/12 01:37:06;;;;;;;0.52;0.52;;;;;;;;;;4973463;28;20041;-72
2021/07/12 01:39:55;;;;;;;0.50;0.50;;;;;;;;;;4987399;28;20039;-71
2021/07/12 01:42:23;;;;;;;0.40;0.40;;;;;;;;;;4961517;28;20141;-72
2021/07/12 01:45:08;;;;;;;0.40;0.40;;;;;;;;;;4988172;28;20041;-72
2021/07/12 01:47:39;;;;;;;0.40;0.40;;;;;;;;;;4979204;28;20034;-72
2021/07/12 01:50:12;;;;;;;0.40;0.40;;;;;;;;;;4973278;28;20483;-72
2021/07/12 01:53:01;;;;;;;0.47;0.47;;;;;;;;;;4968886;28;20150;-72
2021/07/12 01:55:49;;;;;;;0.50;0.50;;;;;;;;;;4963816;28;20100;-72
2021/07/12 01:58:24;;;;;;;0.40;0.40;;;;;;;;;;4970920;28;20035;-72
2021/07/12 02:00:53;;;;;;;0.50;0.50;;;;;;;;;;4979097;28;20053;-72
2021/07/12 02:03:21;;;;;;;0.47;0.47;;;;;;;;;;4978931;28;20030;-72
2021/07/12 02:05:48;;;;;;;0.50;0.50;;;;;;;;;;4959791;28;20030;-72
2021/07/12 02:08:14;;;;;;;;;;;;;;;;;;4964613;28;20035;-72
2021/07/12 02:10:44;;;;;;;0.50;0.50;;;;;;;;;;4980341;28;20004;-72
2021/07/12 02:13:12;;;;;;;0.43;0.43;;;;;;;;;;4979005;28;20031;-72
2021/07/12 02:15:46;;;;;;;0.50;0.50;;;;;;;;;;4979823;28;20497;-72
2021/07/12 02:18:28;;;;;;;0.47;0.47;;;;;;;;;;4978086;28;20081;-72
2021/07/12 02:21:03;;;;;;;0.47;0.47;;;;;;;;;;4989246;28;20038;-72
2021/07/12 02:23:29;;;;;;;0.50;0.50;;;;;;;;;;4987050;28;20034;-72
2021/07/12 02:25:56;;;;;;;0.50;0.50;;;;;;;;;;4981044;28;20049;-72
2021/07/12 02:28:22;;;;;;;0.50;0.50;;;;;;;;;;4967347;28;20053;-72
2021/07/12 02:30:50;;;;;;;0.50;0.50;;;;;;;;;;4963865;28;20350;-72
2021/07/12 02:33:18;;;;;;;0.43;0.43;;;;;;;;;;4975600;28;20055;-72
2021/07/12 02:35:44;;;;;;;0.50;0.50;;;;;;;;;;4975433;28;20447;-72
2021/07/12 02:38:11;;;;;;;0.50;0.50;;;;;;;;;;4986695;28;20058;-72
2021/07/12 02:40:38;;;;;;;;;;;;;;;;;;4981255;28;20133;-73
2021/07/12 02:43:06;;;;;;;0.50;0.50;;;;;;;;;;4977026;28;19922;-72
2021/07/12 02:45:37;;;;;;;0.40;0.40;;;;;;;;;;4974420;28;20499;-72
2021/07/12 02:48:04;;;;;;;0.40;0.40;;;;;;;;;;4988478;28;20109;-72
2021/07/12 02:50:33;;;;;;;0.50;0.50;;;;;;;;;;4985536;28;20023;-72
2021/07/12 02:53:03;;;;;;;0.50;0.50;;;;;;;;;;4978797;28;20038;-72
2021/07/12 02:55:29;;;;;;;0.60;0.60;;;;;;;;;;4985766;28;20369;-72
2021/07/12 02:57:54;;;;;;;0.50;0.50;;;;;;;;;;4978211;28;20488;-72
2021/07/12 03:00:21;;;;;;;0.50;0.50;;;;;;;;;;4975521;28;20117;-71
2021/07/12 03:02:47;;;;;;;0.40;0.40;;;;;;;;;;4985362;28;20121;-72
2021/07/12 03:05:16;;;;;;;0.50;0.50;;;;;;;;;;4969573;28;20027;-72
2021/07/12 03:07:50;;;;;;;0.50;0.50;;;;;;;;;;4985473;28;20390;-72
2021/07/12 03:10:20;;;;;;;0.50;0.50;;;;;;;;;;4986134;28;20030;-72
2021/07/12 03:12:51;;;;;;;0.50;0.50;;;;;;;;;;4967328;28;20034;-72
2021/07/12 03:15:25;;;;;;;0.50;0.50;;;;;;;;;;4978949;28;20515;-71
2021/07/12 03:17:52;;;;;;;0.50;0.50;;;;;;;;;;4984931;28;20041;-71
2021/07/12 03:20:19;;;;;;;0.50;0.50;;;;;;;;;;4977054;28;20037;-71
2021/07/12 03:22:52;;;;;;;0.60;0.60;;;;;;;;;;4976474;28;20034;-72
2021/07/12 03:25:20;;;;;;;0.50;0.50;;;;;;;;;;4976696;28;20419;-72
2021/07/12 03:27:46;;;;;;;0.50;0.50;;;;;;;;;;4976911;28;20080;-71
2021/07/12 03:30:12;;;;;;;0.50;0.50;;;;;;;;;;4985704;28;20148;-72
2021/07/12 03:32:40;;;;;;;0.50;0.50;;;;;;;;;;4983930;28;20176;-72
2021/07/12 03:35:08;;;;;;;0.50;0.50;;;;;;;;;;4994596;28;20034;-71
2021/07/12 03:37:34;;;;;;;0.50;0.50;;;;;;;;;;4975030;28;20031;-71
2021/07/12 03:40:02;;;;;;;0.50;0.50;;;;;;;;;;4981582;28;20029;-72
2021/07/12 03:42:29;;;;;;;;;;;;;;;;;;4967854;28;20505;-71
2021/07/12 03:44:55;;;;;;;0.50;0.50;;;;;;;;;;4967626;28;19929;-72
2021/07/12 03:47:25;;;;;;;0.50;0.50;;;;;;;;;;4986789;28;20030;-72
2021/07/12 03:49:51;;;;;;;0.50;0.50;;;;;;;;;;4992679;28;20031;-72
2021/07/12 03:52:17;;;;;;;0.52;0.52;;;;;;;;;;4981022;28;20041;-74
2021/07/12 03:54:42;;;;;;;0.52;0.52;;;;;;;;;;4987871;28;20030;-72
2021/07/12 03:57:07;;;;;;;0.50;0.50;;;;;;;;;;4978599;28;20029;-73
2021/07/12 03:59:33;;;;;;;0.50;0.50;;;;;;;;;;4975911;28;20030;-73
2021/07/12 04:01:58;;;;;;;0.50;0.50;;;;;;;;;;4979520;28;20030;-75
2021/07/12 04:04:24;;;;;;;0.50;0.50;;;;;;;;;;4969698;28;20030;-78
2021/07/12 04:06:49;;;;;;;0.50;0.50;;;;;;;;;;4984206;28;20022;-75
2021/07/12 04:09:14;;;;;;;0.60;0.60;;;;;;;;;;4979777;28;20037;-75
2021/07/12 04:11:42;;;;;;;0.50;0.50;;;;;;;;;;4977983;28;20031;-75
2021/07/12 04:14:07;;;;;;;0.50;0.50;;;;;;;;;;4977757;28;20476;-75
2021/07/12 04:16:33;;;;;;;0.50;0.50;;;;;;;;;;4977589;28;20042;-75
2021/07/12 04:19:00;;;;;;;0.50;0.50;;;;;;;;;;4979948;28;20041;-75
2021/07/12 04:21:26;;;;;;;;;;;;;;;;;;4977322;28;20030;-75
2021/07/12 04:23:51;;;;;;;0.60;0.60;;;;;;;;;;4976079;28;19918;-75
2021/07/12 04:26:16;;;;;;;0.60;0.60;;;;;;;;;;4969392;28;20053;-75
2021/07/12 04:28:42;;;;;;;0.40;0.40;;;;;;;;;;4976875;28;20076;-76
2021/07/12 04:31:07;;;;;;;0.50;0.50;;;;;;;;;;4956301;28;20485;-75
2021/07/12 04:33:35;;;;;;;0.57;0.57;;;;;;;;;;4996217;28;20438;-75
2021/07/12 04:36:02;;;;;;;0.50;0.50;;;;;;;;;;4964693;28;20048;-75
2021/07/12 04:38:27;;;;;;;0.60;0.60;;;;;;;;;;4976445;28;20733;-75
2021/07/12 04:40:53;;;;;;;0.55;0.55;;;;;;;;;;4983520;28;20097;-75
2021/07/12 04:43:18;;;;;;;0.50;0.50;;;;;;;;;;4962743;28;20048;-76
2021/07/12 04:45:46;;;;;;;0.50;0.50;;;;;;;;;;4984675;28;20022;-74
2021/07/12 04:48:14;;;;;;;0.40;0.40;;;;;;;;;;4978863;28;20429;-74
2021/07/12 04:50:39;;;;;;;0.40;0.40;;;;;;;;;;4967966;28;20027;-74
2021/07/12 04:53:07;;;;;;;0.50;0.50;;;;;;;;;;4975466;28;20031;-75
2021/07/12 04:55:35;;;;;;;0.40;0.40;;;;;;;;;;4985714;28;20480;-75
2021/07/12 04:58:03;;;;;;;0.40;0.40;;;;;;;;;;4977864;28;20126;-75
2021/07/12 05:00:28;;;;;;;0.50;0.50;;;;;;;;;;4979626;28;20113;-75
2021/07/12 05:02:53;;;;;;;0.50;0.50;;;;;;;;;;4975914;28;20018;-75
2021/07/12 05:05:19;;;;;;;0.47;0.47;;;;;;;;;;4972429;28;20723;-75
2021/07/12 05:07:44;;;;;;;0.40;0.40;;;;;;;;;;4989646;28;20039;-74
2021/07/12 05:10:10;;;;;;;0.40;0.40;;;;;;;;;;4987156;28;20102;-74
2021/07/12 05:12:36;;;;;;;0.50;0.50;;;;;;;;;;4978675;28;20056;-75
2021/07/12 05:15:02;;;;;;;0.50;0.50;;;;;;;;;;4965002;28;20033;-75
2021/07/12 05:17:27;;;;;;;0.40;0.40;;;;;;;;;;4950774;28;20030;-75
2021/07/12 05:19:55;;;;;;;0.50;0.50;;;;;;;;;;4983880;28;20841;-75
2021/07/12 05:22:25;;;;;;;0.40;0.40;;;;;;;;;;4969992;28;20030;-75
2021/07/12 05:24:51;;;;;;;0.40;0.40;;;;;;;;;;4984917;28;20034;-75
2021/07/12 05:27:16;;;;;;;0.40;0.40;;;;;;;;;;4972399;28;20100;-75
2021/07/12 05:29:41;;;;;;;0.40;0.40;;;;;;;;;;4970242;28;20027;-75
2021/07/12 05:32:09;;;;;;;0.40;0.40;;;;;;;;;;4966627;28;20401;-75
2021/07/12 05:34:34;;;;;;;0.30;0.30;;;;;;;;;;4983596;28;20030;-74
2021/07/12 05:37:00;;;;;;;0.30;0.30;;;;;;;;;;4975701;28;20102;-74
2021/07/12 05:39:25;;;;;;;0.45;0.45;;;;;;;;;;4981291;28;20061;-75
2021/07/12 05:41:50;;;;;;;0.40;0.40;;;;;;;;;;4980819;28;20031;-74
2021/07/12 05:44:16;;;;;;;0.30;0.30;;;;;;;;;;4982333;28;20468;-75
2021/07/12 05:46:41;;;;;;;0.35;0.35;;;;;;;;;;4985806;28;20062;-75
2021/07/12 05:49:09;;;;;;;0.30;0.30;;;;;;;;;;4988934;28;20026;-75
2021/07/12 05:51:36;;;;;;;0.40;0.40;;;;;;;;;;4985814;28;20041;-75
2021/07/12 05:54:02;;;;;;;0.40;0.40;;;;;;;;;;4983577;28;20035;-76
2021/07/12 05:56:27;;;;;;;0.40;0.40;;;;;;;;;;4977112;28;20039;-76
2021/07/12 05:58:53;;;;;;;0.30;0.30;;;;;;;;;;4979872;28;20125;-77
2021/07/12 06:01:20;;;;;;;0.30;0.30;;;;;;;;;;4986928;28;20031;-77
2021/07/12 06:03:46;;;;;;;0.40;0.40;;;;;;;;;;4961910;28;20031;-77
2021/07/12 06:06:12;;;;;;;0.30;0.30;;;;;;;;;;4986619;28;20030;-76
2021/07/12 06:08:40;;;;;;;0.30;0.30;;;;;;;;;;4989144;28;20022;-77
2021/07/12 06:11:07;;;;;;;0.30;0.30;;;;;;;;;;4995305;28;20061;-77
2021/07/12 06:13:32;;;;;;;0.30;0.30;;;;;;;;;;4984467;28;20039;-76
2021/07/12 06:15:58;;;;;;;0.35;0.35;;;;;;;;;;4963611;28;20041;-76
2021/07/12 06:18:23;;;;;;;0.20;0.20;;;;;;;;;;4977718;28;20468;-77
2021/07/12 06:20:48;;;;;;;0.20;0.20;;;;;;;;;;4980461;28;20027;-76
2021/07/12 06:23:14;;;;;;;0.20;0.20;;;;;;;;;;4978176;28;20037;-77
2021/07/12 06:25:39;;;;;;;0.30;0.30;;;;;;;;;;4971975;28;20038;-77
2021/07/12 06:28:05;;;;;;;0.47;0.38;;;;;;;;;;4972228;28;20041;-77
2021/07/12 06:30:30;;;;;;;0.20;0.20;;;;;;;;;;4974080;28;20031;-72
2021/07/12 06:32:56;;;;;;;0.25;0.25;;;;;;;;;;4975892;28;20049;-73
2021/07/12 06:35:21;;;;;;;0.20;0.20;;;;;;;;;;4980236;28;20026;-73
2021/07/12 06:37:47;;;;;;;0.20;0.20;;;;;;;;;;4969336;28;20819;-73
2021/07/12 06:40:12;;;;;;;0.20;0.20;;;;;;;;;;4979859;28;20497;-73
2021/07/12 06:42:38;;;;;;;0.20;0.20;;;;;;;;;;4985403;28;20080;-73
2021/07/12 06:45:05;;;;;;;0.20;0.20;;;;;;;;;;4972387;28;20474;-73
2021/07/12 06:47:31;;;;;;;0.28;0.22;;;;;;;;;;4978988;28;20105;-73
2021/07/12 06:50:01;;;;;;;0.57;0.35;;;;;;;;;;4977379;28;20026;-73
2021/07/12 06:52:26;;;;;;;0.30;0.30;;;;;;;;;;4964308;28;20034;-73
2021/07/12 06:54:52;;;;;;;0.20;0.20;;;;;;;;;;4976822;28;20400;-73
2021/07/12 06:57:17;;;;;;;0.15;0.15;;;;;;;;;;4985682;28;20141;-73
2021/07/12 06:59:42;;;;;;;0.10;0.10;;;;;;;;;;4977879;28;20030;-73
2021/07/12 07:02:10;;;;;;;0.20;0.20;;;;;;;;;;4978151;28;20038;-73
2021/07/12 07:04:36;;;;;;;0.10;0.10;;;;;;;;;;4979503;28;20038;-74
2021/07/12 07:07:01;;;;;;;0.20;0.20;;;;;;;;;;4977448;28;20031;-72
2021/07/12 07:09:31;;;;;;;0.22;0.22;;;;;;;;;;4971638;28;20416;-74
2021/07/12 07:11:56;;;;;;;0.20;0.20;;;;;;;;;;4970357;28;20038;-73
2021/07/12 07:14:21;;;;;;;0.20;0.20;;;;;;;;;;4977789;28;20035;-73
2021/07/12 07:16:47;;;;;;;0.10;0.10;;;;;;;;;;4980605;28;20137;-73
2021/07/12 07:19:16;;;;;;;0.10;0.10;;;;;;;;;;4972325;28;20070;-73
2021/07/12 07:21:41;;;;;;;0.10;0.10;;;;;;;;;;4972914;28;20709;-74
2021/07/12 07:24:09;;;;;;;0.20;0.20;;;;;;;;;;4987430;28;20088;-73
2021/07/12 07:26:35;;;;;;;0.10;0.10;;;;;;;;;;4977324;28;20759;-73
2021/07/12 07:29:01;;;;;;;0.10;0.10;;;;;;;;;;4980840;28;20040;-72
2021/07/12 07:31:26;;;;;;;0.10;0.10;;;;;;;;;;4970935;28;20042;-72
2021/07/12 07:33:51;;;;;;;0.20;0.20;;;;;;;;;;4967267;28;20125;-73
2021/07/12 07:36:17;;;;;;;0.10;0.10;;;;;;;;;;4986502;28;20042;-74
2021/07/12 07:38:45;;;;;;;0.10;0.10;;;;;;;;;;4983300;28;20105;-73
2021/07/12 07:41:11;;;;;;;0.10;0.10;;;;;;;;;;4980669;28;20734;-73
2021/07/12 07:43:36;;;;;;;0.20;0.15;;;;;;;;;;4967474;28;20129;-73
2021/07/12 07:46:02;;;;;;;0.10;0.10;;;;;;;;;;4976440;28;20181;-73
2021/07/12 07:48:27;;;;;;;0.10;0.10;;;;;;;;;;4978018;28;20061;-72
2021/07/12 07:50:53;;;;;;;0.20;0.20;;;;;;;;;;4973450;28;20045;-72
2021/07/12 07:53:18;;;;;;;0.10;0.10;;;;;;;;;;4978814;28;20077;-73
2021/07/12 07:55:43;;;;;;;0.25;0.10;;;;;;;;;;4979211;28;20057;-73
2021/07/12 07:58:09;;;;;;;0.10;0.10;;;;;;;;;;4978298;28;20030;-73
2021/07/12 08:00:34;;;;;;;0.45;0.22;;;;;;;;;;4979006;28;20569;-72
2021/07/12 08:03:02;;;;;;;0.17;0.17;;;;;;;;;;4973030;28;20023;-73
2021/07/12 08:05:27;;;;;;;0.10;0.10;;;;;;;;;;4987689;28;20025;-74
2021/07/12 08:07:53;;;;;;;0.13;0.13;;;;;;;;;;4976819;28;20023;-74
2021/07/12 08:10:18;;;;;;;0.20;0.20;;;;;;;;;;4981341;28;20033;-73
2021/07/12 08:12:45;;;;;;;0.20;0.20;;;;;;;;;;4963546;28;20038;-73
2021/07/12 08:15:11;;;;;;;0.10;0.10;;;;;;;;;;4992163;28;20445;-71
2021/07/12 08:17:37;;;;;;;0.20;0.20;;;;;;;;;;4978453;28;20027;-73
2021/07/12 08:20:03;;;;;;;0.10;0.10;;;;;;;;;;4975901;28;20042;-72
2021/07/12 08:22:29;;;;;;;0.10;0.10;;;;;;;;;;4979895;28;20041;-72
2021/07/12 08:24:54;;;;;;;0.10;0.10;;;;;;;;;;4984842;28;20038;-72
2021/07/12 08:27:19;;;;;;;0.85;0.20;;;;;;;;;;4975622;28;20167;-72
2021/07/12 08:29:45;;;;;;;0.10;0.10;;;;;;;;;;4980395;28;20718;-71
2021/07/12 08:32:10;;;;;;;0.10;0.10;;;;;;;;;;4983573;28;20018;-72
2021/07/12 08:34:41;;;;;;;0.10;0.10;;;;;;;;;;4977140;28;20043;-73
2021/07/12 08:37:07;;;;;;;0.20;0.20;;;;;;;;;;4977833;28;20687;-72
2021/07/12 08:39:32;;;;;;;0.20;0.20;;;;;;;;;;4989933;28;20030;-72
2021/07/12 08:41:59;;;;;;;0.10;0.10;;;;;;;;;;4980169;28;20456;-72
2021/07/12 08:44:27;;;;;;;0.10;0.10;;;;;;;;;;4980431;28;20023;-72
2021/07/12 08:46:53;;;;;;;0.10;0.10;;;;;;;;;;4982381;28;20509;-72
2021/07/12 08:49:20;;;;;;;0.10;0.10;;;;;;;;;;4983931;28;20363;-72
2021/07/12 08:51:46;;;;;;;0.10;0.10;;;;;;;;;;4972705;28;20141;-72
2021/07/12 08:54:13;;;;;;;0.15;0.10;;;;;;;;;;4973981;28;20039;-72
2021/07/12 08:56:39;;;;;;;0.25;0.20;;;;;;;;;;4985749;28;20460;-72
2021/07/12 08:59:23;;;;;;;0.10;0.10;;;;;;;;;;4974379;28;20035;-72
2021/07/12 09:02:10;;;;;;;0.10;0.10;;;;;;;;;;4980164;28;20026;-72
2021/07/12 09:04:40;;;;;;;0.10;0.10;;;;;;;;;;4980409;28;20138;-72
2021/07/12 09:07:06;;;;;;;0.10;0.10;;;;;;;;;;4978179;28;20328;-72
2021/07/12 09:09:32;;;;;;;0.10;0.10;;;;;;;;;;4977104;28;20038;-72
2021/07/12 09:12:12;;;;;;;0.10;0.10;;;;;;;;;;4966591;28;20044;-73
2021/07/12 09:14:39;;;;;;;0.10;0.10;;;;;;;;;;4976175;28;20046;-73
2021/07/12 09:17:06;;;;;;;0.10;0.10;;;;;;;;;;4982725;28;20059;-73
2021/07/12 09:19:33;;;;;;;0.10;0.10;;;;;;;;;;4975712;28;20030;-73
2021/07/12 09:21:58;;;;;;;0.10;0.10;;;;;;;;;;4983057;28;20092;-72
2021/07/12 09:24:27;;;;;;;0.10;0.10;;;;;;;;;;4985264;28;20023;-73
2021/07/12 09:26:52;;;;;;;;;;;;;;;;;;4974270;28;20484;-73
2021/07/12 09:29:24;;;;;;;0.10;0.10;;;;;;;;;;4974863;28;19945;-72
2021/07/12 09:31:50;;;;;;;0.10;0.10;;;;;;;;;;4978954;28;20041;-72
2021/07/12 09:34:15;;;;;;;0.10;0.10;;;;;;;;;;4981782;28;20045;-73
2021/07/12 09:36:43;;;;;;;0.10;0.10;;;;;;;;;;4982244;28;20031;-72
2021/07/12 09:39:28;;;;;;;0.10;0.10;;;;;;;;;;4983188;28;20442;-72
2021/07/12 09:41:55;;;;;;;0.10;0.10;;;;;;;;;;4980043;28;20042;-73
2021/07/12 09:44:22;;;;;;;0.10;0.10;;;;;;;;;;4980675;28;20026;-73
2021/07/12 09:46:48;;;;;;;0.10;0.10;;;;;;;;;;4987509;28;20453;-73
2021/07/12 09:49:14;;;;;;;0.10;0.10;;;;;;;;;;4981093;28;20472;-73
2021/07/12 09:51:40;;;;;;;;;;;;;;;;;;4981040;28;20034;-72
2021/07/12 09:54:18;;;;;;;0.10;0.10;;;;;;;;;;4981133;28;19920;-73
2021/07/12 09:56:46;;;;;;;0.20;0.20;;;;;;;;;;4978019;28;20030;-73
2021/07/12 09:59:12;;;;;;;0.10;0.10;;;;;;;;;;4980696;28;20026;-72
2021/07/12 10:01:38;;;;;;;0.10;0.10;;;;;;;;;;4977366;28;20034;-73
2021/07/12 10:04:03;;;;;;;0.10;0.10;;;;;;;;;;4980827;28;20038;-72
2021/07/12 10:06:29;;;;;;;0.10;0.10;;;;;;;;;;4977898;28;20034;-72
2021/07/12 10:08:54;;;;;;;0.10;0.10;;;;;;;;;;4974424;28;20085;-73
2021/07/12 10:11:22;;;;;;;0.10;0.10;;;;;;;;;;4975342;28;20035;-72
2021/07/12 10:13:47;;;;;;;0.10;0.10;;;;;;;;;;4979112;28;20105;-72
2021/07/12 10:16:13;;;;;;;0.10;0.10;;;;;;;;;;4958180;28;20035;-72
2021/07/12 10:18:39;;;;;;;0.10;0.10;;;;;;;;;;4979577;28;20034;-72
2021/07/12 10:21:11;;;;;;;0.10;0.10;;;;;;;;;;4970969;28;20038;-72
2021/07/12 10:23:37;;;;;;;0.20;0.20;;;;;;;;;;4970082;28;20097;-72
2021/07/12 10:26:03;;;;;;;0.10;0.10;;;;;;;;;;4968539;28;20061;-72
2021/07/12 10:28:39;;;;;;;0.10;0.10;;;;;;;;;;4979164;28;20044;-72
2021/07/12 10:31:21;;;;;;;0.10;0.10;;;;;;;;;;4987058;28;20065;-72
2021/07/12 10:33:47;;;;;;;0.17;0.17;;;;;;;;;;4957056;28;20136;-72
2021/07/12 10:36:32;;;;;;;0.10;0.10;;;;;;;;;;4987650;28;20056;-73
2021/07/12 10:38:57;;;;;;;0.20;0.10;;;;;;;;;;4981073;28;20054;-73
2021/07/12 10:41:27;;;;;;;0.10;0.10;;;;;;;;;;4978764;28;20030;-73
2021/07/12 10:43:57;;;;;;;0.05;0.05;;;;;;;;;;4984106;28;20050;-73
2021/07/12 10:46:30;;;;;;;0.10;0.10;;;;;;;;;;4974024;28;20034;-73
2021/07/12 10:49:00;;;;;;;0.10;0.10;;;;;;;;;;4983719;28;20465;-72
2021/07/12 10:51:32;;;;;;;0.10;0.10;;;;;;;;;;4975310;28;20042;-74
2021/07/12 10:54:03;;;;;;;0.10;0.10;;;;;;;;;;4982368;28;20046;-72
2021/07/12 10:56:41;;;;;;;0.13;0.13;;;;;;;;;;4979754;28;20053;-72
2021/07/12 10:59:06;;;;;;;0.00;0.00;;;;;;;;;;4979553;28;20504;-73
2021/07/12 11:01:35;;;;;;;0.10;0.10;;;;;;;;;;4975911;28;20034;-72
2021/07/12 11:04:01;;;;;;;0.10;0.10;;;;;;;;;;4964653;28;20030;-71
2021/07/12 11:06:46;;;;;;;0.10;0.10;;;;;;;;;;4978356;28;20483;-72
2021/07/12 11:09:12;;;;;;;0.10;0.10;;;;;;;;;;4974737;28;20039;-71
2021/07/12 11:11:40;;;;;;;0.03;0.03;;;;;;;;;;4982422;28;20026;-72
2021/07/12 11:14:06;;;;;;;0.03;0.03;;;;;;;;;;4977196;28;20034;-71
2021/07/12 11:16:41;;;;;;;0.00;0.00;;;;;;;;;;4975688;28;20077;-72
2021/07/12 11:19:22;;;;;;;0.03;0.03;;;;;;;;;;4981691;28;20503;-71
2021/07/12 11:21:47;;;;;;;0.00;0.00;;;;;;;;;;4978608;28;20034;-71
2021/07/12 11:24:17;;;;;;;0.00;0.00;;;;;;;;;;4975872;28;20496;-72
2021/07/12 11:26:44;;;;;;;0.00;0.00;;;;;;;;;;4978513;28;20348;-72
2021/07/12 11:29:26;;;;;;;0.17;0.08;;;;;;;;;;4975951;28;20497;-72
2021/07/12 11:31:56;;;;;;;0.10;0.10;;;;;;;;;;4961295;28;20508;-72
2021/07/12 11:34:32;;;;;;;0.05;0.00;;;;;;;;;;4976295;28;20043;-72
2021/07/12 11:37:00;;;;;;;0.10;0.10;;;;;;;;;;4980998;28;20501;-72
2021/07/12 11:39:27;;;;;;;0.00;0.00;;;;;;;;;;4979318;28;20030;-73
2021/07/12 11:41:53;;;;;;;0.00;0.00;;;;;;;;;;4980752;28;20064;-72
2021/07/12 11:44:19;;;;;;;0.00;0.00;;;;;;;;;;4982099;28;20026;-72
2021/07/12 11:46:45;;;;;;;0.00;0.00;;;;;;;;;;4981008;28;20081;-72
2021/07/12 11:49:15;;;;;;;0.00;0.00;;;;;;;;;;4984481;28;20045;-72
2021/07/12 11:51:40;;;;;;;0.10;0.00;;;;;;;;;;4979371;28;20026;-72
2021/07/12 11:54:13;;;;;;;0.00;0.00;;;;;;;;;;4983759;28;20088;-72
2021/07/12 11:56:38;;;;;;;0.00;0.00;;;;;;;;;;4979198;28;20034;-72
2021/07/12 11:59:04;;;;;;;0.00;0.00;;;;;;;;;;4979788;28;20042;-73
2021/07/12 12:01:29;;;;;;;0.00;0.00;;;;;;;;;;4975575;28;20031;-72
2021/07/12 12:04:02;;;;;;;0.00;0.00;;;;;;;;;;4968796;28;20043;-71
2021/07/12 12:06:30;;;;;;;0.00;0.00;;;;;;;;;;4976229;28;20110;-71
2021/07/12 12:09:02;;;;;;;0.00;0.00;;;;;;;;;;4981419;28;20262;-72
2021/07/12 12:11:31;;;;;;;0.00;0.00;;;;;;;;;;4977724;28;20046;-71
2021/07/12 12:13:56;;;;;;;0.10;0.10;;;;;;;;;;4977263;28;20045;-71
2021/07/12 12:16:28;;;;;;;0.00;0.00;;;;;;;;;;4981487;28;20030;-72
2021/07/12 12:18:54;;;;;;;0.00;0.00;;;;;;;;;;4979941;28;20121;-71
2021/07/12 12:21:23;;;;;;;0.10;0.05;;;;;;;;;;4981574;28;20033;-72
2021/07/12 12:23:48;;;;;;;0.00;0.00;;;;;;;;;;4975132;28;20042;-71
2021/07/12 12:26:17;;;;;;;0.00;0.00;;;;;;;;;;4978835;28;20046;-72
2021/07/12 12:28:44;;;;;;;0.00;0.00;;;;;;;;;;4978913;28;20023;-71
2021/07/12 12:31:42;;;;;;;0.25;0.13;;;;;;;;;;4968413;28;20130;-71
2021/07/12 12:34:11;;;;;;;0.00;0.00;;;;;;;;;;4953487;28;20496;-71
2021/07/12 12:36:37;;;;;;;0.00;0.00;;;;;;;;;;4980853;28;20022;-72
2021/07/12 12:39:07;;;;;;;0.00;0.00;;;;;;;;;;4978658;28;20030;-71
2021/07/12 12:41:36;;;;;;;0.00;0.00;;;;;;;;;;4995656;28;20038;-72
2021/07/12 12:44:06;;;;;;;0.00;0.00;;;;;;;;;;4983596;28;20034;-72
2021/07/12 12:46:37;;;;;;;0.08;0.00;;;;;;;;;;4981678;28;20041;-72
2021/07/12 12:49:29;;;;;;;0.13;0.00;;;;;;;;;;4979823;28;20022;-71
2021/07/12 12:51:56;;;;;;;0.00;0.00;;;;;;;;;;4978598;28;20093;-73
2021/07/12 12:54:28;;;;;;;0.15;0.00;;;;;;;;;;4999113;28;20126;-72
2021/07/12 12:56:54;;;;;;;0.00;0.00;;;;;;;;;;4984288;28;20027;-72
2021/07/12 12:59:30;;;;;;;0.10;0.10;;;;;;;;;;4982406;28;20542;-72
2021/07/12 13:02:06;;;;;;;0.00;0.00;;;;;;;;;;4982779;28;20149;-73
2021/07/12 13:04:49;;;;;;;0.00;0.00;;;;;;;;;;4986767;28;20046;-71
2021/07/12 13:07:25;;;;;;;0.00;0.00;;;;;;;;;;4964074;28;20030;-72
2021/07/12 13:10:06;;;;;;;0.00;0.00;;;;;;;;;;4981153;28;20072;-73
2021/07/12 13:12:47;;;;;;;0.05;0.00;;;;;;;;;;4979317;28;20042;-74
2021/07/12 13:15:13;;;;;;;0.00;0.00;;;;;;;;;;4981540;28;20400;-74
2021/07/12 13:17:39;;;;;;;0.00;0.00;;;;;;;;;;4981008;28;20118;-74
2021/07/12 13:20:07;;;;;;;;;;;;;;;;;;4984505;28;20451;-73
2021/07/12 13:22:36;;;;;;;0.08;0.08;;;;;;;;;;4978631;28;19953;-74
2021/07/12 13:25:06;;;;;;;0.00;0.00;;;;;;;;;;4984355;28;20045;-73
2021/07/12 13:27:36;;;;;;;0.00;0.00;;;;;;;;;;4982762;28;20044;-73
2021/07/12 13:30:05;;;;;;;0.17;0.00;;;;;;;;;;4980653;28;20078;-73
2021/07/12 13:32:30;;;;;;;0.32;0.10;;;;;;;;;;4980201;28;20030;-73
2021/07/12 13:34:55;;;;;;;;;;;;;;;;;;4978553;28;20184;-73
2021/07/12 13:37:21;;;;;;;;;;;;;;;;;;4977727;28;20403;-73
2021/07/12 13:39:46;;;;;;;0.00;0.00;;;;;;;;;;4979634;28;19913;-73
2021/07/12 13:42:11;;;;;;;0.00;0.00;;;;;;;;;;4973999;28;20058;-73
2021/07/12 13:44:37;;;;;;;0.00;0.00;;;;;;;;;;4985047;28;20034;-73
2021/07/12 13:47:02;;;;;;;0.10;0.05;;;;;;;;;;4979389;28;20031;-74
2021/07/12 13:49:30;;;;;;;0.03;0.03;;;;;;;;;;4981983;28;20039;-76
2021/07/12 13:51:55;;;;;;;0.00;0.00;;;;;;;;;;4982384;28;20082;-76
2021/07/12 13:54:21;;;;;;;;;;;;;;;;;;4980726;28;20092;-74
2021/07/12 13:56:46;;;;;;;0.00;0.00;;;;;;;;;;4966431;28;19949;-76
2021/07/12 13:59:11;;;;;;;;;;;;;;;;;;4981031;28;20633;-75
2021/07/12 14:01:37;;;;;;;0.00;0.00;;;;;;;;;;4980735;28;20025;-75
2021/07/12 14:04:05;;;;;;;0.20;0.20;;;;;;;;;;4984998;28;20504;-76
2021/07/12 14:06:30;;;;;;;0.10;0.10;;;;;;;;;;4988146;28;20045;-76
2021/07/12 14:08:56;;;;;;;0.17;0.17;;;;;;;;;;4984430;28;20031;-76
2021/07/12 14:11:21;;;;;;;0.20;0.20;;;;;;;;;;4986903;28;20104;-76
2021/07/12 14:13:47;;;;;;;0.00;0.00;;;;;;;;;;4981234;28;20074;-76
2021/07/12 14:16:16;;;;;;;0.00;0.00;;;;;;;;;;4987627;28;20034;-76
2021/07/12 14:18:42;;;;;;;0.08;0.08;;;;;;;;;;4985232;28;20408;-77
2021/07/12 14:21:07;;;;;;;0.00;0.00;;;;;;;;;;4980136;28;20068;-76
2021/07/12 14:23:32;;;;;;;0.00;0.00;;;;;;;;;;4984210;28;20536;-77
2021/07/12 14:26:00;;;;;;;0.35;0.13;;;;;;;;;;4982447;28;20045;-77
2021/07/12 14:28:25;;;;;;;0.10;0.10;;;;;;;;;;4989238;28;20419;-77
2021/07/12 14:30:51;;;;;;;0.00;0.00;;;;;;;;;;4972649;28;20007;-76
2021/07/12 14:33:18;;;;;;;0.10;0.00;;;;;;;;;;4977275;28;20030;-77
2021/07/12 14:35:43;;;;;;;0.00;0.00;;;;;;;;;;4985294;28;20026;-76
2021/07/12 14:38:09;;;;;;;0.00;0.00;;;;;;;;;;4977567;28;20069;-77
2021/07/12 14:40:34;;;;;;;0.00;0.00;;;;;;;;;;4983241;28;20034;-76
2021/07/12 14:42:59;;;;;;;0.00;0.00;;;;;;;;;;4977240;28;20126;-76
2021/07/12 14:45:25;;;;;;;0.10;0.10;;;;;;;;;;4981239;28;20138;-77
2021/07/12 14:47:50;;;;;;;0.00;0.00;;;;;;;;;;4987273;28;20035;-77
2021/07/12 14:50:16;;;;;;;0.15;0.15;;;;;;;;;;4990090;28;20030;-77